sensor_id;sensor_type;location;lat;lon;timestamp;P1;durP1;ratioP1;P2;durP2;ratioP2
63534;SDS011;55128;50.230;18.944;2023-05-14T00:02:16;17.87;;;13.67;;
63534;SDS011;55128;50.230;18.944;2023-05-14T00:07:17;26.65;;;16.60;;
63534;SDS011;55128;50.230;18.944;2023-05-14T00:12:17;21.48;;;15.57;;
63534;SDS011;55128;50.230;18.944;2023-05-14T00:17:18;26.90;;;18.97;;
63534;SDS011;55128;50.230;18.944;2023-05-14T00:22:18;31.85;;;20.13;;
63534;SDS011;55128;50.230;18.944;2023-05-14T00:27:19;25.50;;;18.67;;
63534;SDS011;55128;50.230;18.944;2023-05-14T00:32:19;22.87;;;16.77;;
63534;SDS011;55128;50.230;18.944;2023-05-14T00:37:20;25.58;;;16.85;;
63534;SDS011;55128;50.230;18.944;2023-05-14T00:42:20;25.70;;;15.77;;
63534;SDS011;55128;50.230;18.944;2023-05-14T00:47:20;19.23;;;13.85;;
63534;SDS011;55128;50.230;18.944;2023-05-14T00:52:21;17.80;;;11.98;;
63534;SDS011;55128;50.230;18.944;2023-05-14T00:57:21;18.25;;;12.55;;
63534;SDS011;55128;50.230;18.944;2023-05-14T01:02:21;20.20;;;13.80;;
63534;SDS011;55128;50.230;18.944;2023-05-14T01:18:07;29.02;;;18.33;;
63534;SDS011;55128;50.230;18.944;2023-05-14T01:23:09;22.15;;;14.98;;
63534;SDS011;55128;50.230;18.944;2023-05-14T01:28:16;45.27;;;34.83;;
63534;SDS011;55128;50.230;18.944;2023-05-14T01:33:17;22.95;;;14.57;;
63534;SDS011;55128;50.230;18.944;2023-05-14T01:38:20;30.45;;;16.48;;
63534;SDS011;55128;50.230;18.944;2023-05-14T01:43:22;24.23;;;14.43;;
63534;SDS011;55128;50.230;18.944;2023-05-14T01:48:23;24.33;;;14.40;;
63534;SDS011;55128;50.230;18.944;2023-05-14T01:53:23;24.27;;;15.13;;
63534;SDS011;55128;50.230;18.944;2023-05-14T01:58:24;24.67;;;16.65;;
63534;SDS011;55128;50.230;18.944;2023-05-14T02:03:24;24.60;;;17.85;;
63534;SDS011;55128;50.230;18.944;2023-05-14T02:08:24;24.23;;;15.80;;
63534;SDS011;55128;50.230;18.944;2023-05-14T02:13:25;24.77;;;15.07;;
63534;SDS011;55128;50.230;18.944;2023-05-14T02:18:25;25.85;;;15.30;;
63534;SDS011;55128;50.230;18.944;2023-05-14T02:23:26;24.30;;;15.03;;
63534;SDS011;55128;50.230;18.944;2023-05-14T02:28:26;24.83;;;14.93;;
63534;SDS011;55128;50.230;18.944;2023-05-14T02:33:27;25.27;;;14.93;;
63534;SDS011;55128;50.230;18.944;2023-05-14T02:38:27;22.08;;;15.43;;
63534;SDS011;55128;50.230;18.944;2023-05-14T02:43:27;19.15;;;13.80;;
63534;SDS011;55128;50.230;18.944;2023-05-14T02:48:28;24.38;;;16.25;;
63534;SDS011;55128;50.230;18.944;2023-05-14T02:53:28;17.27;;;13.20;;
63534;SDS011;55128;50.230;18.944;2023-05-14T02:58:28;20.75;;;14.90;;
63534;SDS011;55128;50.230;18.944;2023-05-14T03:03:29;22.88;;;16.10;;
63534;SDS011;55128;50.230;18.944;2023-05-14T03:08:30;19.85;;;14.20;;
63534;SDS011;55128;50.230;18.944;2023-05-14T03:13:30;19.88;;;14.32;;
63534;SDS011;55128;50.230;18.944;2023-05-14T03:18:31;21.90;;;18.60;;
63534;SDS011;55128;50.230;18.944;2023-05-14T03:23:32;16.73;;;11.57;;
63534;SDS011;55128;50.230;18.944;2023-05-14T03:28:34;12.73;;;11.30;;
63534;SDS011;55128;50.230;18.944;2023-05-14T03:33:34;15.83;;;11.40;;
63534;SDS011;55128;50.230;18.944;2023-05-14T03:38:35;22.80;;;17.15;;
63534;SDS011;55128;50.230;18.944;2023-05-14T03:43:35;16.73;;;12.52;;
63534;SDS011;55128;50.230;18.944;2023-05-14T03:48:36;19.87;;;13.70;;
63534;SDS011;55128;50.230;18.944;2023-05-14T03:53:36;16.35;;;13.18;;
63534;SDS011;55128;50.230;18.944;2023-05-14T03:58:36;16.17;;;10.97;;
63534;SDS011;55128;50.230;18.944;2023-05-14T04:03:37;13.73;;;10.65;;
63534;SDS011;55128;50.230;18.944;2023-05-14T04:08:37;18.40;;;13.90;;
63534;SDS011;55128;50.230;18.944;2023-05-14T04:13:37;18.77;;;12.50;;
63534;SDS011;55128;50.230;18.944;2023-05-14T04:18:38;14.80;;;10.23;;
63534;SDS011;55128;50.230;18.944;2023-05-14T04:23:38;12.60;;;9.98;;
63534;SDS011;55128;50.230;18.944;2023-05-14T04:28:39;12.57;;;9.53;;
63534;SDS011;55128;50.230;18.944;2023-05-14T04:33:39;17.95;;;12.70;;
63534;SDS011;55128;50.230;18.944;2023-05-14T04:38:39;14.43;;;9.68;;
63534;SDS011;55128;50.230;18.944;2023-05-14T04:43:40;10.75;;;9.27;;
63534;SDS011;55128;50.230;18.944;2023-05-14T04:48:40;12.75;;;8.82;;
63534;SDS011;55128;50.230;18.944;2023-05-14T04:53:41;13.40;;;8.60;;
63534;SDS011;55128;50.230;18.944;2023-05-14T04:58:41;14.67;;;12.60;;
63534;SDS011;55128;50.230;18.944;2023-05-14T05:03:41;10.43;;;6.80;;
63534;SDS011;55128;50.230;18.944;2023-05-14T05:08:42;9.77;;;8.83;;
63534;SDS011;55128;50.230;18.944;2023-05-14T05:13:42;9.53;;;8.53;;
63534;SDS011;55128;50.230;18.944;2023-05-14T05:18:42;9.07;;;7.37;;
63534;SDS011;55128;50.230;18.944;2023-05-14T05:23:44;6.90;;;4.75;;
63534;SDS011;55128;50.230;18.944;2023-05-14T05:28:44;5.63;;;4.70;;
63534;SDS011;55128;50.230;18.944;2023-05-14T05:33:45;6.67;;;5.67;;
63534;SDS011;55128;50.230;18.944;2023-05-14T05:38:45;12.05;;;10.80;;
63534;SDS011;55128;50.230;18.944;2023-05-14T05:43:45;6.23;;;5.13;;
63534;SDS011;55128;50.230;18.944;2023-05-14T05:48:46;6.53;;;4.95;;
63534;SDS011;55128;50.230;18.944;2023-05-14T05:53:46;4.97;;;3.92;;
63534;SDS011;55128;50.230;18.944;2023-05-14T05:58:47;6.63;;;5.20;;
63534;SDS011;55128;50.230;18.944;2023-05-14T06:03:47;5.83;;;4.43;;
63534;SDS011;55128;50.230;18.944;2023-05-14T06:08:47;6.70;;;4.97;;
63534;SDS011;55128;50.230;18.944;2023-05-14T06:13:48;6.47;;;4.77;;
63534;SDS011;55128;50.230;18.944;2023-05-14T06:18:48;5.47;;;4.88;;
63534;SDS011;55128;50.230;18.944;2023-05-14T06:23:48;5.20;;;4.70;;
63534;SDS011;55128;50.230;18.944;2023-05-14T06:28:49;4.53;;;4.07;;
63534;SDS011;55128;50.230;18.944;2023-05-14T06:33:49;5.90;;;3.70;;
63534;SDS011;55128;50.230;18.944;2023-05-14T06:38:52;5.28;;;3.92;;
63534;SDS011;55128;50.230;18.944;2023-05-14T06:44:02;4.72;;;4.03;;
63534;SDS011;55128;50.230;18.944;2023-05-14T06:49:02;5.15;;;3.80;;
63534;SDS011;55128;50.230;18.944;2023-05-14T06:54:03;5.23;;;3.93;;
63534;SDS011;55128;50.230;18.944;2023-05-14T06:59:03;3.47;;;3.10;;
63534;SDS011;55128;50.230;18.944;2023-05-14T07:04:03;4.13;;;3.13;;
63534;SDS011;55128;50.230;18.944;2023-05-14T07:09:04;5.38;;;3.45;;
63534;SDS011;55128;50.230;18.944;2023-05-14T07:14:05;5.28;;;3.25;;
63534;SDS011;55128;50.230;18.944;2023-05-14T07:19:06;3.60;;;3.00;;
63534;SDS011;55128;50.230;18.944;2023-05-14T07:24:06;4.45;;;2.88;;
63534;SDS011;55128;50.230;18.944;2023-05-14T07:29:07;3.08;;;2.78;;
63534;SDS011;55128;50.230;18.944;2023-05-14T07:34:07;4.00;;;3.30;;
63534;SDS011;55128;50.230;18.944;2023-05-14T07:39:09;3.63;;;2.92;;
63534;SDS011;55128;50.230;18.944;2023-05-14T07:44:10;5.77;;;4.37;;
63534;SDS011;55128;50.230;18.944;2023-05-14T07:49:10;4.82;;;3.80;;
63534;SDS011;55128;50.230;18.944;2023-05-14T07:54:10;6.10;;;4.03;;
63534;SDS011;55128;50.230;18.944;2023-05-14T07:59:11;6.07;;;3.90;;
63534;SDS011;55128;50.230;18.944;2023-05-14T08:04:11;5.33;;;3.80;;
63534;SDS011;55128;50.230;18.944;2023-05-14T08:14:14;4.22;;;2.70;;
63534;SDS011;55128;50.230;18.944;2023-05-14T08:19:15;3.63;;;2.78;;
63534;SDS011;55128;50.230;18.944;2023-05-14T08:24:16;4.35;;;2.38;;
63534;SDS011;55128;50.230;18.944;2023-05-14T08:29:17;3.17;;;2.88;;
63534;SDS011;55128;50.230;18.944;2023-05-14T08:34:17;3.23;;;2.90;;
63534;SDS011;55128;50.230;18.944;2023-05-14T08:39:37;4.25;;;2.92;;
63534;SDS011;55128;50.230;18.944;2023-05-14T08:44:48;3.97;;;3.57;;
63534;SDS011;55128;50.230;18.944;2023-05-14T08:50:05;5.15;;;3.78;;
63534;SDS011;55128;50.230;18.944;2023-05-14T08:55:07;3.92;;;3.58;;
63534;SDS011;55128;50.230;18.944;2023-05-14T09:00:10;4.05;;;3.50;;
63534;SDS011;55128;50.230;18.944;2023-05-14T09:05:11;5.57;;;3.80;;
63534;SDS011;55128;50.230;18.944;2023-05-14T09:10:30;3.53;;;3.22;;
63534;SDS011;55128;50.230;18.944;2023-05-14T09:15:31;3.85;;;3.30;;
63534;SDS011;55128;50.230;18.944;2023-05-14T09:20:33;5.93;;;3.28;;
63534;SDS011;55128;50.230;18.944;2023-05-14T09:25:34;3.72;;;3.20;;
63534;SDS011;55128;50.230;18.944;2023-05-14T09:30:35;5.07;;;4.40;;
63534;SDS011;55128;50.230;18.944;2023-05-14T09:35:36;4.95;;;3.28;;
63534;SDS011;55128;50.230;18.944;2023-05-14T09:40:58;4.32;;;3.03;;
63534;SDS011;55128;50.230;18.944;2023-05-14T09:45:59;5.00;;;3.20;;
63534;SDS011;55128;50.230;18.944;2023-05-14T09:51:00;5.40;;;3.05;;
63534;SDS011;55128;50.230;18.944;2023-05-14T10:01:39;3.08;;;2.70;;
63534;SDS011;55128;50.230;18.944;2023-05-14T10:06:41;6.50;;;4.78;;
63534;SDS011;55128;50.230;18.944;2023-05-14T10:11:46;4.68;;;3.25;;
63534;SDS011;55128;50.230;18.944;2023-05-14T10:16:52;5.57;;;3.72;;
63534;SDS011;55128;50.230;18.944;2023-05-14T10:21:56;5.93;;;4.60;;
63534;SDS011;55128;50.230;18.944;2023-05-14T10:27:03;4.88;;;3.70;;
63534;SDS011;55128;50.230;18.944;2023-05-14T10:32:04;5.70;;;3.05;;
63534;SDS011;55128;50.230;18.944;2023-05-14T10:37:10;6.22;;;3.17;;
63534;SDS011;55128;50.230;18.944;2023-05-14T10:42:32;3.55;;;2.90;;
63534;SDS011;55128;50.230;18.944;2023-05-14T10:47:35;4.60;;;2.58;;
63534;SDS011;55128;50.230;18.944;2023-05-14T10:52:56;4.17;;;2.47;;
63534;SDS011;55128;50.230;18.944;2023-05-14T11:03:52;3.40;;;2.50;;
63534;SDS011;55128;50.230;18.944;2023-05-14T11:08:55;4.00;;;2.87;;
63534;SDS011;55128;50.230;18.944;2023-05-14T11:13:56;4.07;;;2.63;;
63534;SDS011;55128;50.230;18.944;2023-05-14T11:19:00;2.97;;;2.60;;
63534;SDS011;55128;50.230;18.944;2023-05-14T11:24:02;4.57;;;3.78;;
63534;SDS011;55128;50.230;18.944;2023-05-14T11:29:04;4.30;;;2.97;;
63534;SDS011;55128;50.230;18.944;2023-05-14T11:34:05;3.70;;;2.70;;
63534;SDS011;55128;50.230;18.944;2023-05-14T11:39:06;3.95;;;3.15;;
63534;SDS011;55128;50.230;18.944;2023-05-14T11:44:09;4.32;;;3.10;;
63534;SDS011;55128;50.230;18.944;2023-05-14T11:49:09;79.57;;;54.50;;
63534;SDS011;55128;50.230;18.944;2023-05-14T11:54:10;3.70;;;2.30;;
63534;SDS011;55128;50.230;18.944;2023-05-14T11:59:13;3.30;;;2.40;;
63534;SDS011;55128;50.230;18.944;2023-05-14T12:04:13;4.78;;;3.13;;
63534;SDS011;55128;50.230;18.944;2023-05-14T12:09:15;4.32;;;2.92;;
63534;SDS011;55128;50.230;18.944;2023-05-14T12:14:20;4.07;;;3.22;;
63534;SDS011;55128;50.230;18.944;2023-05-14T12:19:22;4.97;;;3.75;;
63534;SDS011;55128;50.230;18.944;2023-05-14T12:24:24;2.60;;;2.10;;
63534;SDS011;55128;50.230;18.944;2023-05-14T12:29:25;4.13;;;2.20;;
63534;SDS011;55128;50.230;18.944;2023-05-14T12:34:25;3.17;;;2.20;;
63534;SDS011;55128;50.230;18.944;2023-05-14T12:39:25;2.83;;;2.30;;
63534;SDS011;55128;50.230;18.944;2023-05-14T12:44:26;3.33;;;2.40;;
63534;SDS011;55128;50.230;18.944;2023-05-14T12:49:26;3.63;;;2.17;;
63534;SDS011;55128;50.230;18.944;2023-05-14T12:54:27;2.75;;;1.95;;
63534;SDS011;55128;50.230;18.944;2023-05-14T12:59:27;2.63;;;1.60;;
63534;SDS011;55128;50.230;18.944;2023-05-14T13:04:27;5.30;;;4.90;;
63534;SDS011;55128;50.230;18.944;2023-05-14T13:09:28;2.15;;;1.30;;
63534;SDS011;55128;50.230;18.944;2023-05-14T13:14:28;5.53;;;2.73;;
63534;SDS011;55128;50.230;18.944;2023-05-14T13:19:28;2.03;;;1.33;;
63534;SDS011;55128;50.230;18.944;2023-05-14T13:24:29;2.03;;;1.40;;
63534;SDS011;55128;50.230;18.944;2023-05-14T13:29:29;2.28;;;1.50;;
63534;SDS011;55128;50.230;18.944;2023-05-14T13:34:30;2.47;;;1.90;;
63534;SDS011;55128;50.230;18.944;2023-05-14T13:39:30;3.97;;;3.00;;
63534;SDS011;55128;50.230;18.944;2023-05-14T13:44:31;2.17;;;1.57;;
63534;SDS011;55128;50.230;18.944;2023-05-14T13:49:31;2.57;;;1.70;;
63534;SDS011;55128;50.230;18.944;2023-05-14T13:54:31;2.47;;;1.70;;
63534;SDS011;55128;50.230;18.944;2023-05-14T13:59:32;5.87;;;2.37;;
63534;SDS011;55128;50.230;18.944;2023-05-14T14:04:32;3.90;;;2.10;;
63534;SDS011;55128;50.230;18.944;2023-05-14T14:09:33;3.05;;;1.80;;
63534;SDS011;55128;50.230;18.944;2023-05-14T14:14:35;3.60;;;1.77;;
63534;SDS011;55128;50.230;18.944;2023-05-14T14:19:36;2.37;;;1.60;;
63534;SDS011;55128;50.230;18.944;2023-05-14T14:24:36;3.87;;;1.77;;
63534;SDS011;55128;50.230;18.944;2023-05-14T14:29:36;2.47;;;1.80;;
63534;SDS011;55128;50.230;18.944;2023-05-14T14:34:37;3.07;;;1.90;;
63534;SDS011;55128;50.230;18.944;2023-05-14T14:39:37;3.75;;;2.58;;
63534;SDS011;55128;50.230;18.944;2023-05-14T14:44:37;3.40;;;2.20;;
63534;SDS011;55128;50.230;18.944;2023-05-14T14:49:38;4.18;;;2.67;;
63534;SDS011;55128;50.230;18.944;2023-05-14T14:54:38;4.80;;;2.13;;
63534;SDS011;55128;50.230;18.944;2023-05-14T14:59:38;3.63;;;2.53;;
63534;SDS011;55128;50.230;18.944;2023-05-14T15:04:39;5.38;;;2.80;;
63534;SDS011;55128;50.230;18.944;2023-05-14T15:09:39;3.03;;;2.00;;
63534;SDS011;55128;50.230;18.944;2023-05-14T15:14:40;2.97;;;1.63;;
63534;SDS011;55128;50.230;18.944;2023-05-14T15:19:40;6.25;;;3.92;;
63534;SDS011;55128;50.230;18.944;2023-05-14T15:24:41;2.35;;;1.85;;
63534;SDS011;55128;50.230;18.944;2023-05-14T15:29:41;3.07;;;1.80;;
63534;SDS011;55128;50.230;18.944;2023-05-14T15:34:42;4.07;;;1.80;;
63534;SDS011;55128;50.230;18.944;2023-05-14T15:39:42;3.67;;;2.60;;
63534;SDS011;55128;50.230;18.944;2023-05-14T15:44:42;18.13;;;11.27;;
63534;SDS011;55128;50.230;18.944;2023-05-14T15:49:43;3.40;;;1.80;;
63534;SDS011;55128;50.230;18.944;2023-05-14T15:54:44;10.60;;;6.37;;
63534;SDS011;55128;50.230;18.944;2023-05-14T15:59:46;3.45;;;2.22;;
63534;SDS011;55128;50.230;18.944;2023-05-14T16:04:46;7.65;;;3.47;;
63534;SDS011;55128;50.230;18.944;2023-05-14T16:09:48;5.57;;;4.00;;
63534;SDS011;55128;50.230;18.944;2023-05-14T16:14:48;8.60;;;6.03;;
63534;SDS011;55128;50.230;18.944;2023-05-14T16:19:49;7.63;;;4.22;;
63534;SDS011;55128;50.230;18.944;2023-05-14T16:24:49;4.90;;;4.40;;
63534;SDS011;55128;50.230;18.944;2023-05-14T16:29:50;9.98;;;8.63;;
63534;SDS011;55128;50.230;18.944;2023-05-14T16:34:50;9.60;;;4.60;;
63534;SDS011;55128;50.230;18.944;2023-05-14T16:39:50;5.90;;;3.50;;
63534;SDS011;55128;50.230;18.944;2023-05-14T16:44:51;6.47;;;3.43;;
63534;SDS011;55128;50.230;18.944;2023-05-14T16:49:51;7.40;;;5.93;;
63534;SDS011;55128;50.230;18.944;2023-05-14T16:54:51;7.00;;;5.87;;
63534;SDS011;55128;50.230;18.944;2023-05-14T16:59:52;4.63;;;3.55;;
63534;SDS011;55128;50.230;18.944;2023-05-14T17:04:52;8.57;;;6.67;;
63534;SDS011;55128;50.230;18.944;2023-05-14T17:09:54;7.50;;;4.20;;
63534;SDS011;55128;50.230;18.944;2023-05-14T17:14:54;6.20;;;3.77;;
63534;SDS011;55128;50.230;18.944;2023-05-14T17:19:54;9.00;;;4.18;;
63534;SDS011;55128;50.230;18.944;2023-05-14T17:24:55;3.55;;;3.00;;
63534;SDS011;55128;50.230;18.944;2023-05-14T17:29:55;4.53;;;3.00;;
63534;SDS011;55128;50.230;18.944;2023-05-14T17:34:56;6.05;;;3.40;;
63534;SDS011;55128;50.230;18.944;2023-05-14T17:39:57;6.93;;;4.20;;
63534;SDS011;55128;50.230;18.944;2023-05-14T17:44:57;4.03;;;3.45;;
63534;SDS011;55128;50.230;18.944;2023-05-14T17:49:58;6.80;;;2.78;;
63534;SDS011;55128;50.230;18.944;2023-05-14T17:54:58;4.03;;;1.60;;
63534;SDS011;55128;50.230;18.944;2023-05-14T17:59:58;3.80;;;1.90;;
63534;SDS011;55128;50.230;18.944;2023-05-14T18:04:59;4.00;;;2.65;;
63534;SDS011;55128;50.230;18.944;2023-05-14T18:09:59;6.22;;;3.22;;
63534;SDS011;55128;50.230;18.944;2023-05-14T18:14:59;4.95;;;3.45;;
63534;SDS011;55128;50.230;18.944;2023-05-14T18:20:00;10.60;;;3.33;;
63534;SDS011;55128;50.230;18.944;2023-05-14T18:25:00;5.72;;;3.83;;
63534;SDS011;55128;50.230;18.944;2023-05-14T18:30:00;5.70;;;3.10;;
63534;SDS011;55128;50.230;18.944;2023-05-14T18:35:01;5.40;;;3.80;;
63534;SDS011;55128;50.230;18.944;2023-05-14T18:40:03;4.93;;;3.67;;
63534;SDS011;55128;50.230;18.944;2023-05-14T18:45:05;6.75;;;4.22;;
63534;SDS011;55128;50.230;18.944;2023-05-14T18:50:06;5.95;;;3.97;;
63534;SDS011;55128;50.230;18.944;2023-05-14T18:55:07;5.10;;;3.85;;
63534;SDS011;55128;50.230;18.944;2023-05-14T19:00:08;6.05;;;4.10;;
63534;SDS011;55128;50.230;18.944;2023-05-14T19:05:09;4.85;;;4.35;;
63534;SDS011;55128;50.230;18.944;2023-05-14T19:10:09;6.18;;;3.90;;
63534;SDS011;55128;50.230;18.944;2023-05-14T19:15:17;5.85;;;4.50;;
63534;SDS011;55128;50.230;18.944;2023-05-14T19:20:26;6.53;;;4.30;;
63534;SDS011;55128;50.230;18.944;2023-05-14T19:25:26;6.47;;;4.35;;
63534;SDS011;55128;50.230;18.944;2023-05-14T19:30:27;7.80;;;5.10;;
63534;SDS011;55128;50.230;18.944;2023-05-14T19:35:27;7.10;;;5.37;;
63534;SDS011;55128;50.230;18.944;2023-05-14T19:40:27;7.82;;;5.97;;
63534;SDS011;55128;50.230;18.944;2023-05-14T19:45:28;6.20;;;4.90;;
63534;SDS011;55128;50.230;18.944;2023-05-14T19:50:28;9.13;;;4.28;;
63534;SDS011;55128;50.230;18.944;2023-05-14T19:55:29;10.13;;;9.03;;
63534;SDS011;55128;50.230;18.944;2023-05-14T20:00:29;5.95;;;4.95;;
63534;SDS011;55128;50.230;18.944;2023-05-14T20:05:30;12.40;;;9.07;;
63534;SDS011;55128;50.230;18.944;2023-05-14T20:10:33;6.80;;;5.80;;
63534;SDS011;55128;50.230;18.944;2023-05-14T20:15:33;7.18;;;6.28;;
63534;SDS011;55128;50.230;18.944;2023-05-14T20:20:34;7.38;;;6.68;;
63534;SDS011;55128;50.230;18.944;2023-05-14T20:25:34;9.88;;;6.97;;
63534;SDS011;55128;50.230;18.944;2023-05-14T20:30:36;8.57;;;6.70;;
63534;SDS011;55128;50.230;18.944;2023-05-14T20:35:36;7.70;;;6.32;;
63534;SDS011;55128;50.230;18.944;2023-05-14T20:40:38;9.13;;;6.57;;
63534;SDS011;55128;50.230;18.944;2023-05-14T20:45:39;6.82;;;6.00;;
63534;SDS011;55128;50.230;18.944;2023-05-14T20:50:39;7.45;;;5.20;;
63534;SDS011;55128;50.230;18.944;2023-05-14T20:55:40;6.97;;;5.10;;
63534;SDS011;55128;50.230;18.944;2023-05-14T21:00:40;8.18;;;5.22;;
63534;SDS011;55128;50.230;18.944;2023-05-14T21:05:42;7.72;;;5.78;;
63534;SDS011;55128;50.230;18.944;2023-05-14T21:10:42;10.05;;;6.50;;
63534;SDS011;55128;50.230;18.944;2023-05-14T21:15:43;9.07;;;7.17;;
63534;SDS011;55128;50.230;18.944;2023-05-14T21:20:43;9.60;;;7.90;;
63534;SDS011;55128;50.230;18.944;2023-05-14T21:25:43;11.03;;;8.90;;
63534;SDS011;55128;50.230;18.944;2023-05-14T21:30:44;14.48;;;10.32;;
63534;SDS011;55128;50.230;18.944;2023-05-14T21:35:44;12.48;;;10.77;;
63534;SDS011;55128;50.230;18.944;2023-05-14T21:40:45;12.87;;;11.43;;
63534;SDS011;55128;50.230;18.944;2023-05-14T21:45:45;13.02;;;11.73;;
63534;SDS011;55128;50.230;18.944;2023-05-14T21:50:48;13.20;;;11.70;;
63534;SDS011;55128;50.230;18.944;2023-05-14T21:55:49;14.57;;;11.25;;
63534;SDS011;55128;50.230;18.944;2023-05-14T22:00:49;13.70;;;12.30;;
63534;SDS011;55128;50.230;18.944;2023-05-14T22:05:49;14.17;;;12.37;;
63534;SDS011;55128;50.230;18.944;2023-05-14T22:10:50;13.90;;;12.50;;
63534;SDS011;55128;50.230;18.944;2023-05-14T22:15:50;13.93;;;12.38;;
63534;SDS011;55128;50.230;18.944;2023-05-14T22:20:51;15.43;;;13.82;;
63534;SDS011;55128;50.230;18.944;2023-05-14T22:25:51;15.38;;;13.68;;
63534;SDS011;55128;50.230;18.944;2023-05-14T22:30:51;15.77;;;13.57;;
63534;SDS011;55128;50.230;18.944;2023-05-14T22:35:52;26.33;;;23.83;;
63534;SDS011;55128;50.230;18.944;2023-05-14T22:40:52;16.40;;;13.97;;
63534;SDS011;55128;50.230;18.944;2023-05-14T22:45:52;17.75;;;13.00;;
63534;SDS011;55128;50.230;18.944;2023-05-14T22:50:53;11.75;;;9.23;;
63534;SDS011;55128;50.230;18.944;2023-05-14T22:55:53;9.85;;;8.60;;
63534;SDS011;55128;50.230;18.944;2023-05-14T23:00:54;12.57;;;11.33;;
63534;SDS011;55128;50.230;18.944;2023-05-14T23:05:54;9.05;;;6.60;;
63534;SDS011;55128;50.230;18.944;2023-05-14T23:10:54;7.17;;;5.37;;
63534;SDS011;55128;50.230;18.944;2023-05-14T23:15:55;7.17;;;5.03;;
63534;SDS011;55128;50.230;18.944;2023-05-14T23:20:55;7.47;;;5.13;;
63534;SDS011;55128;50.230;18.944;2023-05-14T23:25:56;10.85;;;9.73;;
63534;SDS011;55128;50.230;18.944;2023-05-14T23:30:56;14.75;;;13.30;;
63534;SDS011;55128;50.230;18.944;2023-05-14T23:35:57;9.30;;;8.47;;
63534;SDS011;55128;50.230;18.944;2023-05-14T23:40:57;7.20;;;5.60;;
63534;SDS011;55128;50.230;18.944;2023-05-14T23:45:58;13.43;;;12.32;;
63534;SDS011;55128;50.230;18.944;2023-05-14T23:50:58;7.00;;;5.57;;
63534;SDS011;55128;50.230;18.944;2023-05-14T23:55:59;9.15;;;8.35;;
